Eagle — WBP2187 — position and weather

sailwx.info

Track history (hours):
 
Tides and Currents Weather Stations Pressure Air Temp Water Temp Dewpoint Dewpoint Depression Visibility Wind Speed Wind Dir Waves Ship Positions

Eagle

Owner: Harley Marine Services, INC, SEATTLE, WA. More information available from US FCC via Universal Licensing System and Coast Guard Vessel Documentation Center.

Last reported at 2015-Jan-30 11:33 UTC. Time now 2015-Jan-30 12:28 UTC.
Position N 47°34' W 122°21'.

Length 32 m; draft 4 m.

Type: Towing. MMSI: 366978690.

Date/timePositionNaut miles runAvg speedWind from/ knotsBaromVisibWave heightAir tempDewpointWater temp
2015-Jan-30 11:33N 47°34' W 122°21'0 0.0
2015-Jan-30 11:19N 47°34' W 122°21'0 0.0
2015-Jan-30 10:33N 47°34' W 122°21'0 0.0
2015-Jan-30 10:29N 47°34' W 122°21'0 0.0
2015-Jan-30 09:33N 47°34' W 122°21'0 0.0
2015-Jan-30 09:28N 47°34' W 122°21'0 0.0
2015-Jan-30 08:34N 47°34' W 122°21'0 0.0
2015-Jan-30 08:33N 47°34' W 122°21'0 0.0
2015-Jan-30 07:33N 47°34' W 122°21'0 0.0
2015-Jan-30 07:33N 47°34' W 122°21'0 0.0
2015-Jan-30 07:03N 47°34' W 122°21'0 0.0
2015-Jan-30 06:33N 47°34' W 122°21'0 0.0
2015-Jan-30 05:33N 47°34' W 122°21'0 0.0
2015-Jan-30 05:33N 47°34' W 122°21'0 0.0
2015-Jan-30 04:33N 47°34' W 122°21'0 0.6
2015-Jan-30 04:33N 47°34' W 122°21'0 0.0
2015-Jan-30 03:33N 47°34' W 122°21'0 0.0
2015-Jan-30 03:27N 47°34' W 122°21'0 0.0
2015-Jan-30 02:33N 47°34' W 122°21'0 0.0
2015-Jan-30 02:02N 47°34' W 122°21'0 0.5
2015-Jan-30 01:33N 47°35' W 122°21'1 5.1
2015-Jan-30 01:26N 47°35' W 122°21'0 0.4
2015-Jan-30 00:33N 47°35' W 122°21'0 0.1
2015-Jan-30 00:31N 47°35' W 122°21'0 0.0
2015-Jan-29 23:33N 47°35' W 122°21'0 0.1
2015-Jan-29 23:31N 47°35' W 122°21'0 0.0
2015-Jan-29 22:33N 47°35' W 122°21'0 0.0
2015-Jan-29 22:30N 47°35' W 122°21'0 0.3
2015-Jan-29 21:33N 47°35' W 122°21'0 0.2
2015-Jan-29 21:30N 47°35' W 122°21'1 1.1
2015-Jan-29 20:33N 47°34' W 122°21'0 0.0
2015-Jan-29 19:53N 47°34' W 122°21'0 0.0
2015-Jan-29 19:33N 47°34' W 122°21'0 0.0
2015-Jan-29 19:33N 47°34' W 122°21'0 0.0
2015-Jan-29 18:33N 47°34' W 122°21'0 0.0
2015-Jan-29 18:33N 47°34' W 122°21'0 0.0
2015-Jan-29 17:33N 47°34' W 122°21'0 0.0
2015-Jan-29 17:33N 47°34' W 122°21'0 0.2
2015-Jan-29 16:33N 47°35' W 122°21'0 4.5
2015-Jan-29 16:33N 47°35' W 122°21'1 0.8
2015-Jan-29 15:33N 47°35' W 122°21'0 0.0
2015-Jan-29 15:33N 47°35' W 122°21'0 0.0
2015-Jan-29 14:33N 47°35' W 122°21'0 0.0
2015-Jan-29 13:33N 47°35' W 122°21'0 0.0
2015-Jan-29 12:33N 47°35' W 122°21'0 0.0
2015-Jan-29 11:57N 47°35' W 122°21'0 0.0
2015-Jan-29 11:33N 47°35' W 122°21'0 0.0
2015-Jan-29 11:32N 47°35' W 122°21'0 0.0
2015-Jan-29 10:33N 47°35' W 122°21'0 0.0
2015-Jan-29 10:11N 47°35' W 122°21'0 0.0
2015-Jan-29 09:33N 47°35' W 122°21'0 0.0
2015-Jan-29 09:26N 47°35' W 122°21'0 0.0
2015-Jan-29 08:33N 47°35' W 122°21'0 0.0
2015-Jan-29 08:30N 47°35' W 122°21'0 0.0
2015-Jan-29 07:33N 47°35' W 122°21'0 0.1
2015-Jan-29 07:31N 47°35' W 122°21'0 0.0
2015-Jan-29 06:56N 47°35' W 122°21'0 0.0
2015-Jan-29 06:33N 47°35' W 122°21'0 0.0
2015-Jan-29 05:33N 47°35' W 122°21'0 0.0
2015-Jan-29 05:31N 47°35' W 122°21'0 0.0
2015-Jan-29 04:33N 47°35' W 122°21'0 0.1
2015-Jan-29 04:30N 47°35' W 122°21'0 0.0
2015-Jan-29 03:33N 47°35' W 122°21'0 0.0
2015-Jan-29 03:30N 47°35' W 122°21'0 0.0
2015-Jan-29 02:33N 47°35' W 122°21'0 0.0
2015-Jan-29 02:30N 47°35' W 122°21'0 0.0
2015-Jan-29 01:33N 47°35' W 122°21'0 0.1
2015-Jan-29 01:30N 47°35' W 122°21'1 0.7
2015-Jan-29 00:33N 47°36' W 122°22'0 4.1
2015-Jan-29 00:30N 47°36' W 122°22'4 4.1
2015-Jan-28 23:33N 47°38' W 122°27'0 6.7
2015-Jan-28 23:30N 47°38' W 122°28'6 6.6
2015-Jan-28 22:33N 47°44' W 122°27'0 6.9
2015-Jan-28 22:29N 47°44' W 122°27'6 6.8
2015-Jan-28 21:33N 47°51' W 122°29'0 6.8
2015-Jan-28 21:29N 47°51' W 122°29'5 5.8
2015-Jan-28 20:33N 47°56' W 122°32'6 6.2
2015-Jan-28 19:31N 48°01' W 122°38'7 6.7
2015-Jan-28 18:32N 48°07' W 122°42'1 7.8
2015-Jan-28 18:26N 48°08' W 122°42'7 8.0
2015-Jan-28 17:32N 48°14' W 122°49'7 7.2
2015-Jan-28 16:35N 48°20' W 122°47'0 6.7
2015-Jan-28 16:33N 48°21' W 122°47'7 6.5
2015-Jan-28 15:33N 48°27' W 122°45'5 6.5
2015-Jan-28 14:50N 48°32' W 122°45'2 7.0
2015-Jan-28 14:33N 48°33' W 122°45'1 7.6
2015-Jan-28 14:25N 48°35' W 122°45'6 6.8
2015-Jan-28 13:33N 48°40' W 122°44'7 6.7
2015-Jan-28 12:33N 48°47' W 122°45'3 2.8
2015-Jan-28 11:27N 48°50' W 122°43'0 0.0
2015-Jan-28 10:33N 48°50' W 122°43'0 0.0
2015-Jan-28 09:33N 48°50' W 122°43'0 0.0
2015-Jan-28 08:29N 48°50' W 122°43'0 0.0
2015-Jan-28 07:30N 48°50' W 122°43'0 0.0
2015-Jan-28 06:38N 48°50' W 122°43'0 0.0
2015-Jan-28 06:13N 48°50' W 122°43'0 0.0
2015-Jan-28 05:21N 48°50' W 122°43'0 0.0
2015-Jan-28 04:30N 48°50' W 122°43'0 0.0
2015-Jan-28 03:33N 48°50' W 122°43'0 0.0
2015-Jan-27 23:33N 48°50' W 122°43'2 1.5
2015-Jan-27 22:25N 48°48' W 122°44'6 6.7
2015-Jan-27 21:33N 48°42' W 122°43'7 7.3
2015-Jan-27 20:33N 48°36' W 122°37'5 4.8
2015-Jan-27 19:33N 48°31' W 122°37'0 0.1
2015-Jan-27 18:33N 48°31' W 122°37'0 0.0
2015-Jan-27 17:33N 48°31' W 122°37'0 0.0
2015-Jan-27 16:33N 48°31' W 122°37'0 0.0
2015-Jan-27 15:33N 48°31' W 122°37'0 0.0
2015-Jan-27 14:33N 48°31' W 122°37'0 0.0
2015-Jan-27 13:33N 48°31' W 122°37'0 0.0
2015-Jan-27 12:33N 48°31' W 122°37'0 0.0
2015-Jan-27 11:33N 48°31' W 122°37'0 0.0
2015-Jan-27 10:33N 48°31' W 122°37'0 0.0
2015-Jan-27 09:33N 48°31' W 122°37'0 0.0
2015-Jan-27 08:33N 48°31' W 122°37'0 0.0
2015-Jan-27 07:33N 48°31' W 122°37'0 0.0
2015-Jan-27 06:33N 48°31' W 122°37'0 0.0
2015-Jan-27 05:33N 48°31' W 122°37'3 3.3
2015-Jan-27 04:33N 48°31' W 122°42'9 9.4
2015-Jan-27 03:33N 48°23' W 122°49'2 9.9
2015-Jan-27 03:20N 48°22' W 122°52'810.0
2015-Jan-27 02:33N 48°18' W 123°02'4 9.1
2015-Jan-27 02:05N 48°16' W 123°08'3 5.4
2015-Jan-27 01:33N 48°14' W 123°11'2 4.8
2015-Jan-27 01:05N 48°13' W 123°14'2 4.1
2015-Jan-27 00:33N 48°12' W 123°17'4 4.0
2015-Jan-26 23:33N 48°12' W 123°23'3 3.2
2015-Jan-26 22:33N 48°12' W 123°28'2 3.8
2015-Jan-26 22:00N 48°12' W 123°31'1 3.2
2015-Jan-26 21:33N 48°12' W 123°33'4 3.6
2015-Jan-26 20:34N 48°12' W 123°39'0 3.7
2015-Jan-26 20:33N 48°12' W 123°39'3 3.8
2015-Jan-26 19:44N 48°13' W 123°43'1 3.9
2015-Jan-26 19:33N 48°13' W 123°44'2 3.9
2015-Jan-26 18:59N 48°13' W 123°48'2 3.9
2015-Jan-26 18:33N 48°13' W 123°50'2 4.1
2015-Jan-26 18:09N 48°13' W 123°53'2 3.9
2015-Jan-26 17:33N 48°13' W 123°56'0 4.2
2015-Jan-26 17:29N 48°13' W 123°57'7 7.5
2015-Jan-26 16:31N 48°16' W 124°07'8 8.2
2015-Jan-26 15:33N 48°19' W 124°17'9 9.1
2015-Jan-26 14:33N 48°23' W 124°30'9 8.7
2015-Jan-26 13:33N 48°26' W 124°42'8 7.7
2015-Jan-26 12:33N 48°26' W 124°54'10 8.9
2015-Jan-26 11:26N 48°17' W 125°01'10 8.7
2015-Jan-26 10:19N 48°09' W 125°09'7 8.7
2015-Jan-26 09:33N 48°04' W 125°14'9 8.6
2015-Jan-26 08:33N 47°55' W 125°17'9 8.7
2015-Jan-26 07:34N 47°47' W 125°14'10 8.7
2015-Jan-26 06:25N 47°37' W 125°11'1 9.0
2015-Jan-26 06:17N 47°36' W 125°11'7 9.0
2015-Jan-26 05:33N 47°29' W 125°09'9 9.0
2015-Jan-26 04:33N 47°20' W 125°06'6 8.8
2015-Jan-26 03:52N 47°14' W 125°04'3 8.4
2015-Jan-26 03:33N 47°12' W 125°03'8 8.6
2015-Jan-26 02:37N 47°04' W 125°01'0 7.5
2015-Jan-26 02:33N 47°04' W 125°01'8 8.4
2015-Jan-26 01:33N 46°55' W 124°59'8 8.3
2015-Jan-26 00:33N 46°47' W 124°59'8 8.1
2015-Jan-25 23:33N 46°39' W 124°58'9 8.5
2015-Jan-25 22:33N 46°30' W 124°58'9 8.6
2015-Jan-25 21:33N 46°22' W 124°59'9 8.7
2015-Jan-25 20:34N 46°13' W 124°58'9 8.8
2015-Jan-25 19:33N 46°04' W 124°59'9 8.8
2015-Jan-25 18:34N 45°55' W 124°58'9 8.7
2015-Jan-25 17:33N 45°47' W 124°58'8 8.5
2015-Jan-25 16:33N 45°38' W 124°58'8 8.5
2015-Jan-25 15:33N 45°30' W 124°58'9 8.9
2015-Jan-25 14:33N 45°21' W 124°58'9 8.9
2015-Jan-25 13:33N 45°12' W 124°58'9 8.6
2015-Jan-25 12:33N 45°03' W 124°58'9 8.7
2015-Jan-25 11:33N 44°55' W 124°58'9 8.8
2015-Jan-25 10:33N 44°46' W 124°57'9 8.8
2015-Jan-25 09:33N 44°37' W 124°57'9 9.0
2015-Jan-25 08:33N 44°28' W 124°58'9 8.9
2015-Jan-25 07:33N 44°19' W 124°58'9 8.9
2015-Jan-25 06:33N 44°10' W 124°58'334 7.9
2015-Jan-23 12:25N 38°39' W 124°02'6 7.2
2015-Jan-23 11:32N 38°33' W 123°59'7 7.6
2015-Jan-23 10:33N 38°26' W 123°55'7 7.4
2015-Jan-23 09:33N 38°20' W 123°51'8 7.6
2015-Jan-23 08:33N 38°13' W 123°47'8 8.1
2015-Jan-23 07:33N 38°06' W 123°42'8 8.2
2015-Jan-23 06:33N 37°59' W 123°37'9 8.6
2015-Jan-23 05:33N 37°51' W 123°33'10 8.5
2015-Jan-23 04:21N 37°41' W 123°28'10 8.1
2015-Jan-23 03:07N 37°32' W 123°24'5 8.2
2015-Jan-23 02:27N 37°26' W 123°22'18 8.1
2015-Jan-23 00:11N 37°09' W 123°14'5 8.2
2015-Jan-22 23:33N 37°04' W 123°12'9 7.9
2015-Jan-22 22:23N 36°55' W 123°09'7 7.5
2015-Jan-22 21:31N 36°49' W 123°06'8 8.0
2015-Jan-22 20:33N 36°45' W 122°58'17 8.1
2015-Jan-22 18:29N 36°32' W 122°45'7 8.0
2015-Jan-22 17:33N 36°26' W 122°39'8 8.3
2015-Jan-22 16:33N 36°19' W 122°33'8 8.2
2015-Jan-22 15:33N 36°12' W 122°28'8 8.0
2015-Jan-22 14:33N 36°06' W 122°22'8 7.7
2015-Jan-22 13:33N 35°60' W 122°16'7 7.4
2015-Jan-22 12:33N 35°54' W 122°11'7 7.2
2015-Jan-22 11:33N 35°48' W 122°05'8 7.6
2015-Jan-22 10:33N 35°42' W 122°00'8 7.8
2015-Jan-22 09:33N 35°35' W 121°54'8 7.7
2015-Jan-22 08:33N 35°30' W 121°48'16 7.7
2015-Jan-22 06:27N 35°17' W 121°36'9 7.5
2015-Jan-22 05:13N 35°09' W 121°30'6 7.4
2015-Jan-22 04:22N 35°04' W 121°25'6 7.6
2015-Jan-22 03:33N 34°59' W 121°21'9 7.2
2015-Jan-22 02:20N 34°52' W 121°15'6 7.2
2015-Jan-22 01:31N 34°47' W 121°10'8 7.2
2015-Jan-22 00:26N 34°41' W 121°05'7 7.1
2015-Jan-21 23:30N 34°35' W 120°60'4 6.8
2015-Jan-21 22:50N 34°32' W 120°57'0 6.7
2015-Jan-21 22:46N 34°32' W 120°56'2 6.8
2015-Jan-21 22:31N 34°30' W 120°55'7 6.6
2015-Jan-21 21:29N 34°26' W 120°49'15 7.4
2015-Jan-21 19:25N 34°22' W 120°31'48 8.1
2015-Jan-21 13:27N 34°09' W 119°35'70 4.1
2015-Jan-20 20:31N 33°44' W 118°16'2 1.8
2015-Jan-20 19:28N 33°46' W 118°16'0 0.0
2015-Jan-20 18:31N 33°46' W 118°16'0 0.0
2015-Jan-20 17:33N 33°46' W 118°16'0 0.0
2015-Jan-20 16:25N 33°46' W 118°16'0 0.0
2015-Jan-20 15:14N 33°46' W 118°16'0 0.0
2015-Jan-20 14:31N 33°46' W 118°16'0 0.0
2015-Jan-20 13:33N 33°46' W 118°16'0 0.0
2015-Jan-20 12:33N 33°46' W 118°16'0 0.0
2015-Jan-20 11:33N 33°46' W 118°16'  
Track history (hours):
 
Tides and Currents Weather Stations Pressure Air Temp Water Temp Dewpoint Dewpoint Depression Visibility Wind Speed Wind Dir Waves Ship Positions

Eagle

Owner: Harley Marine Services, INC, SEATTLE, WA. More information available from US FCC via Universal Licensing System and Coast Guard Vessel Documentation Center.

Last reported at 2015-Jan-30 11:33 UTC. Time now 2015-Jan-30 12:28 UTC.
Position N 47°34' W 122°21'.

Length 32 m; draft 4 m.

Type: Towing. MMSI: 366978690.

Date/timePositionNaut miles runAvg speedWind from/ knotsBaromVisibWave heightAir tempDewpointWater temp
2015-Jan-30 11:33N 47°34' W 122°21'0 0.0
2015-Jan-30 11:19N 47°34' W 122°21'0 0.0
2015-Jan-30 10:33N 47°34' W 122°21'0 0.0
2015-Jan-30 10:29N 47°34' W 122°21'0 0.0
2015-Jan-30 09:33N 47°34' W 122°21'0 0.0
2015-Jan-30 09:28N 47°34' W 122°21'0 0.0
2015-Jan-30 08:34N 47°34' W 122°21'0 0.0
2015-Jan-30 08:33N 47°34' W 122°21'0 0.0
2015-Jan-30 07:33N 47°34' W 122°21'0 0.0
2015-Jan-30 07:33N 47°34' W 122°21'0 0.0
2015-Jan-30 07:03N 47°34' W 122°21'0 0.0
2015-Jan-30 06:33N 47°34' W 122°21'0 0.0
2015-Jan-30 05:33N 47°34' W 122°21'0 0.0
2015-Jan-30 05:33N 47°34' W 122°21'0 0.0
2015-Jan-30 04:33N 47°34' W 122°21'0 0.6
2015-Jan-30 04:33N 47°34' W 122°21'0 0.0
2015-Jan-30 03:33N 47°34' W 122°21'0 0.0
2015-Jan-30 03:27N 47°34' W 122°21'0 0.0
2015-Jan-30 02:33N 47°34' W 122°21'0 0.0
2015-Jan-30 02:02N 47°34' W 122°21'0 0.5
2015-Jan-30 01:33N 47°35' W 122°21'1 5.1
2015-Jan-30 01:26N 47°35' W 122°21'0 0.4
2015-Jan-30 00:33N 47°35' W 122°21'0 0.1
2015-Jan-30 00:31N 47°35' W 122°21'0 0.0
2015-Jan-29 23:33N 47°35' W 122°21'0 0.1
2015-Jan-29 23:31N 47°35' W 122°21'0 0.0
2015-Jan-29 22:33N 47°35' W 122°21'0 0.0
2015-Jan-29 22:30N 47°35' W 122°21'0 0.3
2015-Jan-29 21:33N 47°35' W 122°21'0 0.2
2015-Jan-29 21:30N 47°35' W 122°21'1 1.1
2015-Jan-29 20:33N 47°34' W 122°21'0 0.0
2015-Jan-29 19:53N 47°34' W 122°21'0 0.0
2015-Jan-29 19:33N 47°34' W 122°21'0 0.0
2015-Jan-29 19:33N 47°34' W 122°21'0 0.0
2015-Jan-29 18:33N 47°34' W 122°21'0 0.0
2015-Jan-29 18:33N 47°34' W 122°21'0 0.0
2015-Jan-29 17:33N 47°34' W 122°21'0 0.0
2015-Jan-29 17:33N 47°34' W 122°21'0 0.2
2015-Jan-29 16:33N 47°35' W 122°21'0 4.5
2015-Jan-29 16:33N 47°35' W 122°21'1 0.8
2015-Jan-29 15:33N 47°35' W 122°21'0 0.0
2015-Jan-29 15:33N 47°35' W 122°21'0 0.0
2015-Jan-29 14:33N 47°35' W 122°21'0 0.0
2015-Jan-29 13:33N 47°35' W 122°21'0 0.0
2015-Jan-29 12:33N 47°35' W 122°21'0 0.0
2015-Jan-29 11:57N 47°35' W 122°21'0 0.0
2015-Jan-29 11:33N 47°35' W 122°21'0 0.0
2015-Jan-29 11:32N 47°35' W 122°21'0 0.0
2015-Jan-29 10:33N 47°35' W 122°21'0 0.0
2015-Jan-29 10:11N 47°35' W 122°21'0 0.0
2015-Jan-29 09:33N 47°35' W 122°21'0 0.0
2015-Jan-29 09:26N 47°35' W 122°21'0 0.0
2015-Jan-29 08:33N 47°35' W 122°21'0 0.0
2015-Jan-29 08:30N 47°35' W 122°21'0 0.0
2015-Jan-29 07:33N 47°35' W 122°21'0 0.1
2015-Jan-29 07:31N 47°35' W 122°21'0 0.0
2015-Jan-29 06:56N 47°35' W 122°21'0 0.0
2015-Jan-29 06:33N 47°35' W 122°21'0 0.0
2015-Jan-29 05:33N 47°35' W 122°21'0 0.0
2015-Jan-29 05:31N 47°35' W 122°21'0 0.0
2015-Jan-29 04:33N 47°35' W 122°21'0 0.1
2015-Jan-29 04:30N 47°35' W 122°21'0 0.0
2015-Jan-29 03:33N 47°35' W 122°21'0 0.0
2015-Jan-29 03:30N 47°35' W 122°21'0 0.0
2015-Jan-29 02:33N 47°35' W 122°21'0 0.0
2015-Jan-29 02:30N 47°35' W 122°21'0 0.0
2015-Jan-29 01:33N 47°35' W 122°21'0 0.1
2015-Jan-29 01:30N 47°35' W 122°21'1 0.7
2015-Jan-29 00:33N 47°36' W 122°22'0 4.1
2015-Jan-29 00:30N 47°36' W 122°22'4 4.1
2015-Jan-28 23:33N 47°38' W 122°27'0 6.7
2015-Jan-28 23:30N 47°38' W 122°28'6 6.6
2015-Jan-28 22:33N 47°44' W 122°27'0 6.9
2015-Jan-28 22:29N 47°44' W 122°27'6 6.8
2015-Jan-28 21:33N 47°51' W 122°29'0 6.8
2015-Jan-28 21:29N 47°51' W 122°29'5 5.8
2015-Jan-28 20:33N 47°56' W 122°32'6 6.2
2015-Jan-28 19:31N 48°01' W 122°38'7 6.7
2015-Jan-28 18:32N 48°07' W 122°42'1 7.8
2015-Jan-28 18:26N 48°08' W 122°42'7 8.0
2015-Jan-28 17:32N 48°14' W 122°49'7 7.2
2015-Jan-28 16:35N 48°20' W 122°47'0 6.7
2015-Jan-28 16:33N 48°21' W 122°47'7 6.5
2015-Jan-28 15:33N 48°27' W 122°45'5 6.5
2015-Jan-28 14:50N 48°32' W 122°45'2 7.0
2015-Jan-28 14:33N 48°33' W 122°45'1 7.6
2015-Jan-28 14:25N 48°35' W 122°45'6 6.8
2015-Jan-28 13:33N 48°40' W 122°44'7 6.7
2015-Jan-28 12:33N 48°47' W 122°45'3 2.8
2015-Jan-28 11:27N 48°50' W 122°43'0 0.0
2015-Jan-28 10:33N 48°50' W 122°43'0 0.0
2015-Jan-28 09:33N 48°50' W 122°43'0 0.0
2015-Jan-28 08:29N 48°50' W 122°43'0 0.0
2015-Jan-28 07:30N 48°50' W 122°43'0 0.0
2015-Jan-28 06:38N 48°50' W 122°43'0 0.0
2015-Jan-28 06:13N 48°50' W 122°43'0 0.0
2015-Jan-28 05:21N 48°50' W 122°43'0 0.0
2015-Jan-28 04:30N 48°50' W 122°43'0 0.0
2015-Jan-28 03:33N 48°50' W 122°43'0 0.0
2015-Jan-27 23:33N 48°50' W 122°43'2 1.5
2015-Jan-27 22:25N 48°48' W 122°44'6 6.7
2015-Jan-27 21:33N 48°42' W 122°43'7 7.3
2015-Jan-27 20:33N 48°36' W 122°37'5 4.8
2015-Jan-27 19:33N 48°31' W 122°37'0 0.1
2015-Jan-27 18:33N 48°31' W 122°37'0 0.0
2015-Jan-27 17:33N 48°31' W 122°37'0 0.0
2015-Jan-27 16:33N 48°31' W 122°37'0 0.0
2015-Jan-27 15:33N 48°31' W 122°37'0 0.0
2015-Jan-27 14:33N 48°31' W 122°37'0 0.0
2015-Jan-27 13:33N 48°31' W 122°37'0 0.0
2015-Jan-27 12:33N 48°31' W 122°37'0 0.0
2015-Jan-27 11:33N 48°31' W 122°37'0 0.0
2015-Jan-27 10:33N 48°31' W 122°37'0 0.0
2015-Jan-27 09:33N 48°31' W 122°37'0 0.0
2015-Jan-27 08:33N 48°31' W 122°37'0 0.0
2015-Jan-27 07:33N 48°31' W 122°37'0 0.0
2015-Jan-27 06:33N 48°31' W 122°37'0 0.0
2015-Jan-27 05:33N 48°31' W 122°37'3 3.3
2015-Jan-27 04:33N 48°31' W 122°42'9 9.4
2015-Jan-27 03:33N 48°23' W 122°49'2 9.9
2015-Jan-27 03:20N 48°22' W 122°52'810.0
2015-Jan-27 02:33N 48°18' W 123°02'4 9.1
2015-Jan-27 02:05N 48°16' W 123°08'3 5.4
2015-Jan-27 01:33N 48°14' W 123°11'2 4.8
2015-Jan-27 01:05N 48°13' W 123°14'2 4.1
2015-Jan-27 00:33N 48°12' W 123°17'4 4.0
2015-Jan-26 23:33N 48°12' W 123°23'3 3.2
2015-Jan-26 22:33N 48°12' W 123°28'2 3.8
2015-Jan-26 22:00N 48°12' W 123°31'1 3.2
2015-Jan-26 21:33N 48°12' W 123°33'4 3.6
2015-Jan-26 20:34N 48°12' W 123°39'0 3.7
2015-Jan-26 20:33N 48°12' W 123°39'3 3.8
2015-Jan-26 19:44N 48°13' W 123°43'1 3.9
2015-Jan-26 19:33N 48°13' W 123°44'2 3.9
2015-Jan-26 18:59N 48°13' W 123°48'2 3.9
2015-Jan-26 18:33N 48°13' W 123°50'2 4.1
2015-Jan-26 18:09N 48°13' W 123°53'2 3.9
2015-Jan-26 17:33N 48°13' W 123°56'0 4.2
2015-Jan-26 17:29N 48°13' W 123°57'7 7.5
2015-Jan-26 16:31N 48°16' W 124°07'8 8.2
2015-Jan-26 15:33N 48°19' W 124°17'9 9.1
2015-Jan-26 14:33N 48°23' W 124°30'9 8.7
2015-Jan-26 13:33N 48°26' W 124°42'8 7.7
2015-Jan-26 12:33N 48°26' W 124°54'10 8.9
2015-Jan-26 11:26N 48°17' W 125°01'10 8.7
2015-Jan-26 10:19N 48°09' W 125°09'7 8.7
2015-Jan-26 09:33N 48°04' W 125°14'9 8.6
2015-Jan-26 08:33N 47°55' W 125°17'9 8.7
2015-Jan-26 07:34N 47°47' W 125°14'10 8.7
2015-Jan-26 06:25N 47°37' W 125°11'1 9.0
2015-Jan-26 06:17N 47°36' W 125°11'7 9.0
2015-Jan-26 05:33N 47°29' W 125°09'9 9.0
2015-Jan-26 04:33N 47°20' W 125°06'6 8.8
2015-Jan-26 03:52N 47°14' W 125°04'3 8.4
2015-Jan-26 03:33N 47°12' W 125°03'8 8.6
2015-Jan-26 02:37N 47°04' W 125°01'0 7.5
2015-Jan-26 02:33N 47°04' W 125°01'8 8.4
2015-Jan-26 01:33N 46°55' W 124°59'8 8.3
2015-Jan-26 00:33N 46°47' W 124°59'8 8.1
2015-Jan-25 23:33N 46°39' W 124°58'9 8.5
2015-Jan-25 22:33N 46°30' W 124°58'9 8.6
2015-Jan-25 21:33N 46°22' W 124°59'9 8.7
2015-Jan-25 20:34N 46°13' W 124°58'9 8.8
2015-Jan-25 19:33N 46°04' W 124°59'9 8.8
2015-Jan-25 18:34N 45°55' W 124°58'9 8.7
2015-Jan-25 17:33N 45°47' W 124°58'8 8.5
2015-Jan-25 16:33N 45°38' W 124°58'8 8.5
2015-Jan-25 15:33N 45°30' W 124°58'9 8.9
2015-Jan-25 14:33N 45°21' W 124°58'9 8.9
2015-Jan-25 13:33N 45°12' W 124°58'9 8.6
2015-Jan-25 12:33N 45°03' W 124°58'9 8.7
2015-Jan-25 11:33N 44°55' W 124°58'9 8.8
2015-Jan-25 10:33N 44°46' W 124°57'9 8.8
2015-Jan-25 09:33N 44°37' W 124°57'9 9.0
2015-Jan-25 08:33N 44°28' W 124°58'9 8.9
2015-Jan-25 07:33N 44°19' W 124°58'9 8.9
2015-Jan-25 06:33N 44°10' W 124°58'334 7.9
2015-Jan-23 12:25N 38°39' W 124°02'6 7.2
2015-Jan-23 11:32N 38°33' W 123°59'7 7.6
2015-Jan-23 10:33N 38°26' W 123°55'7 7.4
2015-Jan-23 09:33N 38°20' W 123°51'8 7.6
2015-Jan-23 08:33N 38°13' W 123°47'8 8.1
2015-Jan-23 07:33N 38°06' W 123°42'8 8.2
2015-Jan-23 06:33N 37°59' W 123°37'9 8.6
2015-Jan-23 05:33N 37°51' W 123°33'10 8.5
2015-Jan-23 04:21N 37°41' W 123°28'10 8.1
2015-Jan-23 03:07N 37°32' W 123°24'5 8.2
2015-Jan-23 02:27N 37°26' W 123°22'18 8.1
2015-Jan-23 00:11N 37°09' W 123°14'5 8.2
2015-Jan-22 23:33N 37°04' W 123°12'9 7.9
2015-Jan-22 22:23N 36°55' W 123°09'7 7.5
2015-Jan-22 21:31N 36°49' W 123°06'8 8.0
2015-Jan-22 20:33N 36°45' W 122°58'17 8.1
2015-Jan-22 18:29N 36°32' W 122°45'7 8.0
2015-Jan-22 17:33N 36°26' W 122°39'8 8.3
2015-Jan-22 16:33N 36°19' W 122°33'8 8.2
2015-Jan-22 15:33N 36°12' W 122°28'8 8.0
2015-Jan-22 14:33N 36°06' W 122°22'8 7.7
2015-Jan-22 13:33N 35°60' W 122°16'7 7.4
2015-Jan-22 12:33N 35°54' W 122°11'7 7.2
2015-Jan-22 11:33N 35°48' W 122°05'8 7.6
2015-Jan-22 10:33N 35°42' W 122°00'8 7.8
2015-Jan-22 09:33N 35°35' W 121°54'8 7.7
2015-Jan-22 08:33N 35°30' W 121°48'16 7.7
2015-Jan-22 06:27N 35°17' W 121°36'9 7.5
2015-Jan-22 05:13N 35°09' W 121°30'6 7.4
2015-Jan-22 04:22N 35°04' W 121°25'6 7.6
2015-Jan-22 03:33N 34°59' W 121°21'9 7.2
2015-Jan-22 02:20N 34°52' W 121°15'6 7.2
2015-Jan-22 01:31N 34°47' W 121°10'8 7.2
2015-Jan-22 00:26N 34°41' W 121°05'7 7.1
2015-Jan-21 23:30N 34°35' W 120°60'4 6.8
2015-Jan-21 22:50N 34°32' W 120°57'0 6.7
2015-Jan-21 22:46N 34°32' W 120°56'2 6.8
2015-Jan-21 22:31N 34°30' W 120°55'7 6.6
2015-Jan-21 21:29N 34°26' W 120°49'15 7.4
2015-Jan-21 19:25N 34°22' W 120°31'48 8.1
2015-Jan-21 13:27N 34°09' W 119°35'70 4.1
2015-Jan-20 20:31N 33°44' W 118°16'2 1.8
2015-Jan-20 19:28N 33°46' W 118°16'0 0.0
2015-Jan-20 18:31N 33°46' W 118°16'0 0.0
2015-Jan-20 17:33N 33°46' W 118°16'0 0.0
2015-Jan-20 16:25N 33°46' W 118°16'0 0.0
2015-Jan-20 15:14N 33°46' W 118°16'0 0.0
2015-Jan-20 14:31N 33°46' W 118°16'0 0.0
2015-Jan-20 13:33N 33°46' W 118°16'0 0.0
2015-Jan-20 12:33N 33°46' W 118°16'0 0.0
2015-Jan-20 11:33N 33°46' W 118°16'  

Dump ship's entire track history